sensor_id;sensor_type;location;lat;lon;timestamp;pressure;altitude;pressure_sealevel;temperature;humidity
64668;BME280;51077;42.716;23.344;2023-02-10T00:01:30;97148.44;;;1.84;35.91
64668;BME280;51077;42.716;23.344;2023-02-10T00:03:56;97141.13;;;1.81;36.25
64668;BME280;51077;42.716;23.344;2023-02-10T00:06:22;97145.44;;;1.79;36.19
64668;BME280;51077;42.716;23.344;2023-02-10T00:08:54;97138.47;;;1.77;36.29
64668;BME280;51077;42.716;23.344;2023-02-10T00:11:21;97137.34;;;1.75;36.19
64668;BME280;51077;42.716;23.344;2023-02-10T00:14:07;97136.97;;;1.73;36.25
64668;BME280;51077;42.716;23.344;2023-02-10T00:16:32;97131.22;;;1.71;36.10
64668;BME280;51077;42.716;23.344;2023-02-10T00:18:58;97132.41;;;1.70;36.66
64668;BME280;51077;42.716;23.344;2023-02-10T00:21:23;97129.31;;;1.68;36.54
64668;BME280;51077;42.716;23.344;2023-02-10T00:23:49;97135.16;;;1.66;36.75
64668;BME280;51077;42.716;23.344;2023-02-10T00:26:15;97135.19;;;1.63;36.64
64668;BME280;51077;42.716;23.344;2023-02-10T00:28:40;97132.47;;;1.63;36.33
64668;BME280;51077;42.716;23.344;2023-02-10T00:31:11;97136.00;;;1.60;36.70
64668;BME280;51077;42.716;23.344;2023-02-10T00:33:38;97129.47;;;1.57;36.52
64668;BME280;51077;42.716;23.344;2023-02-10T00:36:08;97120.97;;;1.55;36.49
64668;BME280;51077;42.716;23.344;2023-02-10T00:38:35;97120.63;;;1.53;36.88
64668;BME280;51077;42.716;23.344;2023-02-10T00:41:08;97117.91;;;1.53;36.71
64668;BME280;51077;42.716;23.344;2023-02-10T00:43:34;97120.66;;;1.49;36.97
64668;BME280;51077;42.716;23.344;2023-02-10T00:46:02;97110.66;;;1.46;36.90
64668;BME280;51077;42.716;23.344;2023-02-10T00:48:27;97106.00;;;1.47;36.71
64668;BME280;51077;42.716;23.344;2023-02-10T00:50:53;97106.84;;;1.44;36.96
64668;BME280;51077;42.716;23.344;2023-02-10T00:53:18;97099.53;;;1.41;36.77
64668;BME280;51077;42.716;23.344;2023-02-10T00:55:44;97113.44;;;1.39;36.80
64668;BME280;51077;42.716;23.344;2023-02-10T00:58:09;97107.66;;;1.37;36.88
64668;BME280;51077;42.716;23.344;2023-02-10T01:00:35;97105.78;;;1.34;36.98
64668;BME280;51077;42.716;23.344;2023-02-10T01:03:00;97102.72;;;1.32;37.16
64668;BME280;51077;42.716;23.344;2023-02-10T01:05:25;97101.19;;;1.31;36.97
64668;BME280;51077;42.716;23.344;2023-02-10T01:07:51;97100.81;;;1.29;37.39
64668;BME280;51077;42.716;23.344;2023-02-10T01:10:18;97101.22;;;1.28;37.23
64668;BME280;51077;42.716;23.344;2023-02-10T01:12:44;97097.81;;;1.23;37.42
64668;BME280;51077;42.716;23.344;2023-02-10T01:15:09;97098.22;;;1.22;37.14
64668;BME280;51077;42.716;23.344;2023-02-10T01:17:35;97093.59;;;1.19;37.58
64668;BME280;51077;42.716;23.344;2023-02-10T01:20:00;97088.22;;;1.15;37.29
64668;BME280;51077;42.716;23.344;2023-02-10T01:22:26;97097.09;;;1.16;37.25
64668;BME280;51077;42.716;23.344;2023-02-10T01:24:51;97094.06;;;1.14;37.35
64668;BME280;51077;42.716;23.344;2023-02-10T01:27:17;97090.22;;;1.11;37.21
64668;BME280;51077;42.716;23.344;2023-02-10T01:29:42;97099.13;;;1.08;37.41
64668;BME280;51077;42.716;23.344;2023-02-10T01:32:08;97086.78;;;1.07;37.40
64668;BME280;51077;42.716;23.344;2023-02-10T01:34:33;97082.16;;;1.04;37.37
64668;BME280;51077;42.716;23.344;2023-02-10T01:36:58;97087.22;;;1.02;37.56
64668;BME280;51077;42.716;23.344;2023-02-10T01:39:24;97079.16;;;0.98;37.55
64668;BME280;51077;42.716;23.344;2023-02-10T01:41:49;97089.22;;;0.98;37.54
64668;BME280;51077;42.716;23.344;2023-02-10T01:46:47;97075.38;;;0.92;37.66
64668;BME280;51077;42.716;23.344;2023-02-10T01:49:16;97071.91;;;0.92;37.84
64668;BME280;51077;42.716;23.344;2023-02-10T01:51:50;97074.22;;;0.90;37.42
64668;BME280;51077;42.716;23.344;2023-02-10T01:54:19;97077.72;;;0.87;37.46
64668;BME280;51077;42.716;23.344;2023-02-10T01:56:46;97068.50;;;0.84;37.38
64668;BME280;51077;42.716;23.344;2023-02-10T01:59:13;97066.19;;;0.83;37.38
64668;BME280;51077;42.716;23.344;2023-02-10T02:01:39;97060.44;;;0.81;37.63
64668;BME280;51077;42.716;23.344;2023-02-10T02:04:04;97059.28;;;0.78;37.61
64668;BME280;51077;42.716;23.344;2023-02-10T02:06:30;97058.19;;;0.75;37.62
64668;BME280;51077;42.716;23.344;2023-02-10T02:08:56;97051.25;;;0.74;37.61
64668;BME280;51077;42.716;23.344;2023-02-10T02:17:28;97045.16;;;0.67;37.66
64668;BME280;51077;42.716;23.344;2023-02-10T02:20:22;97033.97;;;0.65;37.97
64668;BME280;51077;42.716;23.344;2023-02-10T02:33:43;97046.84;;;0.54;37.87
64668;BME280;51077;42.716;23.344;2023-02-10T02:36:23;97038.34;;;0.52;38.01
64668;BME280;51077;42.716;23.344;2023-02-10T02:38:51;97042.25;;;0.47;38.02
64668;BME280;51077;42.716;23.344;2023-02-10T02:41:26;97031.88;;;0.45;37.75
64668;BME280;51077;42.716;23.344;2023-02-10T02:43:52;97043.84;;;0.44;37.73
64668;BME280;51077;42.716;23.344;2023-02-10T02:49:07;97039.66;;;0.40;37.81
64668;BME280;51077;42.716;23.344;2023-02-10T02:52:00;97041.19;;;0.37;37.92
64668;BME280;51077;42.716;23.344;2023-02-10T02:55:12;97037.75;;;0.33;37.67
64668;BME280;51077;42.716;23.344;2023-02-10T02:57:44;97033.94;;;0.31;38.07
64668;BME280;51077;42.716;23.344;2023-02-10T03:00:13;97030.09;;;0.28;38.07
64668;BME280;51077;42.716;23.344;2023-02-10T03:02:40;97035.91;;;0.27;38.02
64668;BME280;51077;42.716;23.344;2023-02-10T03:05:07;97021.25;;;0.24;38.00
64668;BME280;51077;42.716;23.344;2023-02-10T03:07:33;97025.13;;;0.23;38.24
64668;BME280;51077;42.716;23.344;2023-02-10T03:09:59;97024.75;;;0.21;38.07
64668;BME280;51077;42.716;23.344;2023-02-10T03:12:24;97034.03;;;0.20;38.06
64668;BME280;51077;42.716;23.344;2023-02-10T03:14:50;97039.47;;;0.16;37.81
64668;BME280;51077;42.716;23.344;2023-02-10T03:17:15;97036.41;;;0.14;37.89
64668;BME280;51077;42.716;23.344;2023-02-10T03:19:41;97037.97;;;0.12;38.13
64668;BME280;51077;42.716;23.344;2023-02-10T03:22:06;97036.03;;;0.09;38.25
64668;BME280;51077;42.716;23.344;2023-02-10T03:24:32;97035.69;;;0.07;37.92
64668;BME280;51077;42.716;23.344;2023-02-10T03:26:57;97039.19;;;0.04;38.14
64668;BME280;51077;42.716;23.344;2023-02-10T03:29:23;97036.13;;;0.02;38.08
64668;BME280;51077;42.716;23.344;2023-02-10T03:31:49;97034.59;;;0.01;38.21
64668;BME280;51077;42.716;23.344;2023-02-10T03:34:15;97039.25;;;0.00;38.20
64668;BME280;51077;42.716;23.344;2023-02-10T03:36:40;97028.44;;;0.00;38.10
64668;BME280;51077;42.716;23.344;2023-02-10T03:39:06;97030.72;;;0.02;38.19
64668;BME280;51077;42.716;23.344;2023-02-10T03:41:31;97030.72;;;0.02;38.09
64668;BME280;51077;42.716;23.344;2023-02-10T03:43:57;97027.66;;;-0.01;38.10
64668;BME280;51077;42.716;23.344;2023-02-10T03:46:22;97024.19;;;-0.01;38.01
64668;BME280;51077;42.716;23.344;2023-02-10T03:48:48;97025.34;;;-0.02;38.05
64668;BME280;51077;42.716;23.344;2023-02-10T03:51:14;97020.38;;;-0.04;37.95
64668;BME280;51077;42.716;23.344;2023-02-10T03:53:39;97019.97;;;-0.06;38.02
64668;BME280;51077;42.716;23.344;2023-02-10T03:56:05;97015.00;;;-0.07;38.23
64668;BME280;51077;42.716;23.344;2023-02-10T03:58:31;97010.00;;;-0.09;38.21
64668;BME280;51077;42.716;23.344;2023-02-10T04:00:57;97009.63;;;-0.11;38.15
64668;BME280;51077;42.716;23.344;2023-02-10T04:03:22;97010.03;;;-0.12;38.08
64668;BME280;51077;42.716;23.344;2023-02-10T04:05:47;97012.34;;;-0.14;38.35
64668;BME280;51077;42.716;23.344;2023-02-10T04:08:13;97010.41;;;-0.14;38.25
64668;BME280;51077;42.716;23.344;2023-02-10T04:10:39;97010.06;;;-0.16;38.38
64668;BME280;51077;42.716;23.344;2023-02-10T04:13:04;97011.22;;;-0.17;38.42
64668;BME280;51077;42.716;23.344;2023-02-10T04:15:30;97024.72;;;-0.17;38.52
64668;BME280;51077;42.716;23.344;2023-02-10T04:17:55;97018.94;;;-0.19;38.51
64668;BME280;51077;42.716;23.344;2023-02-10T04:20:22;97013.94;;;-0.20;38.40
64668;BME280;51077;42.716;23.344;2023-02-10T04:22:48;97009.72;;;-0.21;38.46
64668;BME280;51077;42.716;23.344;2023-02-10T04:25:13;97004.69;;;-0.23;38.54
64668;BME280;51077;42.716;23.344;2023-02-10T04:27:39;97007.03;;;-0.25;38.52
64668;BME280;51077;42.716;23.344;2023-02-10T04:30:04;97011.69;;;-0.26;38.47
64668;BME280;51077;42.716;23.344;2023-02-10T04:32:32;97009.34;;;-0.27;38.27
64668;BME280;51077;42.716;23.344;2023-02-10T04:37:49;97010.94;;;-0.30;38.44
64668;BME280;51077;42.716;23.344;2023-02-10T04:40:14;97011.31;;;-0.31;38.48
64668;BME280;51077;42.716;23.344;2023-02-10T04:42:40;97013.25;;;-0.32;38.51
64668;BME280;51077;42.716;23.344;2023-02-10T04:45:05;97015.19;;;-0.32;38.47
64668;BME280;51077;42.716;23.344;2023-02-10T04:47:31;97013.66;;;-0.33;38.67
64668;BME280;51077;42.716;23.344;2023-02-10T04:49:56;97020.97;;;-0.34;38.73
64668;BME280;51077;42.716;23.344;2023-02-10T04:52:22;97016.75;;;-0.35;38.52
64668;BME280;51077;42.716;23.344;2023-02-10T04:54:48;97015.59;;;-0.37;38.77
64668;BME280;51077;42.716;23.344;2023-02-10T04:57:13;97018.31;;;-0.37;38.68
64668;BME280;51077;42.716;23.344;2023-02-10T04:59:39;97023.31;;;-0.39;38.79
64668;BME280;51077;42.716;23.344;2023-02-10T05:02:04;97027.19;;;-0.40;38.63
64668;BME280;51077;42.716;23.344;2023-02-10T05:04:29;97031.06;;;-0.41;38.56
64668;BME280;51077;42.716;23.344;2023-02-10T05:06:55;97029.13;;;-0.44;38.82
64668;BME280;51077;42.716;23.344;2023-02-10T05:09:24;97039.94;;;-0.44;38.73
64668;BME280;51077;42.716;23.344;2023-02-10T05:11:49;97039.56;;;-0.46;38.85
64668;BME280;51077;42.716;23.344;2023-02-10T05:14:15;97040.34;;;-0.46;38.92
64668;BME280;51077;42.716;23.344;2023-02-10T05:16:40;97038.41;;;-0.49;38.84
64668;BME280;51077;42.716;23.344;2023-02-10T05:19:06;97046.16;;;-0.51;38.64
64668;BME280;51077;42.716;23.344;2023-02-10T05:21:31;97045.38;;;-0.52;38.73
64668;BME280;51077;42.716;23.344;2023-02-10T05:23:58;97058.88;;;-0.52;38.72
64668;BME280;51077;42.716;23.344;2023-02-10T05:26:23;97068.09;;;-0.53;38.95
64668;BME280;51077;42.716;23.344;2023-02-10T05:28:49;97071.97;;;-0.54;38.89
64668;BME280;51077;42.716;23.344;2023-02-10T05:31:14;97072.38;;;-0.55;38.96
64668;BME280;51077;42.716;23.344;2023-02-10T05:33:40;97071.59;;;-0.56;38.75
64668;BME280;51077;42.716;23.344;2023-02-10T05:36:06;97074.31;;;-0.56;39.06
64668;BME280;51077;42.716;23.344;2023-02-10T05:38:31;97070.06;;;-0.57;38.82
64668;BME280;51077;42.716;23.344;2023-02-10T05:40:57;97073.50;;;-0.53;38.72
64668;BME280;51077;42.716;23.344;2023-02-10T05:43:22;97075.06;;;-0.52;38.90
64668;BME280;51077;42.716;23.344;2023-02-10T05:45:48;97084.25;;;-0.45;38.66
64668;BME280;51077;42.716;23.344;2023-02-10T05:48:13;97076.91;;;-0.41;38.71
64668;BME280;51077;42.716;23.344;2023-02-10T05:50:39;97084.22;;;-0.35;38.76
64668;BME280;51077;42.716;23.344;2023-02-10T05:53:05;97086.47;;;-0.26;38.84
64668;BME280;51077;42.716;23.344;2023-02-10T05:55:31;97080.63;;;-0.17;38.44
64668;BME280;51077;42.716;23.344;2023-02-10T05:57:56;97087.09;;;-0.04;38.09
64668;BME280;51077;42.716;23.344;2023-02-10T06:00:22;97088.50;;;0.08;38.13
64668;BME280;51077;42.716;23.344;2023-02-10T06:02:48;97091.13;;;0.22;37.72
64668;BME280;51077;42.716;23.344;2023-02-10T06:05:13;97097.91;;;0.37;37.67
64668;BME280;51077;42.716;23.344;2023-02-10T06:07:39;97096.66;;;0.49;37.41
64668;BME280;51077;42.716;23.344;2023-02-10T06:10:05;97095.03;;;0.59;37.29
64668;BME280;51077;42.716;23.344;2023-02-10T06:12:31;97099.16;;;0.70;37.14
64668;BME280;51077;42.716;23.344;2023-02-10T06:14:56;97108.31;;;0.80;37.20
64668;BME280;51077;42.716;23.344;2023-02-10T06:17:22;97106.69;;;0.90;36.94
64668;BME280;51077;42.716;23.344;2023-02-10T06:19:47;97106.13;;;1.06;36.79
64668;BME280;51077;42.716;23.344;2023-02-10T06:22:13;97117.47;;;1.28;36.42
64668;BME280;51077;42.716;23.344;2023-02-10T06:24:38;97116.03;;;1.50;36.19
64668;BME280;51077;42.716;23.344;2023-02-10T06:27:04;97117.63;;;1.74;36.17
64668;BME280;51077;42.716;23.344;2023-02-10T06:29:30;97118.81;;;2.00;35.60
64668;BME280;51077;42.716;23.344;2023-02-10T06:31:56;97130.38;;;2.28;35.19
64668;BME280;51077;42.716;23.344;2023-02-10T06:34:21;97123.72;;;2.56;34.96
64668;BME280;51077;42.716;23.344;2023-02-10T06:36:47;97139.09;;;2.86;34.69
64668;BME280;51077;42.716;23.344;2023-02-10T06:39:12;97133.47;;;3.17;34.18
64668;BME280;51077;42.716;23.344;2023-02-10T06:41:37;97131.75;;;3.46;34.04
64668;BME280;51077;42.716;23.344;2023-02-10T06:44:03;97132.19;;;3.81;33.36
64668;BME280;51077;42.716;23.344;2023-02-10T06:46:28;97134.19;;;4.29;32.77
64668;BME280;51077;42.716;23.344;2023-02-10T06:48:54;97130.63;;;4.65;32.35
64668;BME280;51077;42.716;23.344;2023-02-10T06:51:20;97130.81;;;5.03;32.11
64668;BME280;51077;42.716;23.344;2023-02-10T06:53:45;97134.66;;;5.48;31.22
64668;BME280;51077;42.716;23.344;2023-02-10T06:56:12;97132.97;;;5.67;31.31
64668;BME280;51077;42.716;23.344;2023-02-10T06:58:38;97136.59;;;5.89;30.99
64668;BME280;51077;42.716;23.344;2023-02-10T07:01:11;97151.03;;;6.15;30.58
64668;BME280;51077;42.716;23.344;2023-02-10T07:03:36;97150.56;;;6.42;30.19
64668;BME280;51077;42.716;23.344;2023-02-10T07:06:03;97150.53;;;6.68;30.09
64668;BME280;51077;42.716;23.344;2023-02-10T07:08:29;97144.13;;;6.96;29.84
64668;BME280;51077;42.716;23.344;2023-02-10T07:10:54;97140.41;;;7.25;29.88
64668;BME280;51077;42.716;23.344;2023-02-10T07:13:19;97134.59;;;7.58;29.25
64668;BME280;51077;42.716;23.344;2023-02-10T07:15:46;97133.38;;;7.90;29.08
64668;BME280;51077;42.716;23.344;2023-02-10T07:18:11;97130.97;;;8.23;28.68
64668;BME280;51077;42.716;23.344;2023-02-10T07:20:37;97129.72;;;8.55;28.54
64668;BME280;51077;42.716;23.344;2023-02-10T07:23:02;97131.13;;;8.87;28.05
64668;BME280;51077;42.716;23.344;2023-02-10T07:25:27;97133.28;;;9.20;27.77
64668;BME280;51077;42.716;23.344;2023-02-10T07:27:53;97137.38;;;9.52;27.36
64668;BME280;51077;42.716;23.344;2023-02-10T07:30:18;97139.88;;;9.83;27.23
64668;BME280;51077;42.716;23.344;2023-02-10T07:32:44;97142.69;;;10.16;26.98
64668;BME280;51077;42.716;23.344;2023-02-10T07:35:10;97132.22;;;10.48;26.66
64668;BME280;51077;42.716;23.344;2023-02-10T07:37:37;97136.16;;;10.80;26.25
64668;BME280;51077;42.716;23.344;2023-02-10T07:40:02;97138.22;;;11.09;25.69
64668;BME280;51077;42.716;23.344;2023-02-10T07:42:28;97132.31;;;11.40;25.63
64668;BME280;51077;42.716;23.344;2023-02-10T07:44:53;97133.41;;;11.72;25.33
64668;BME280;51077;42.716;23.344;2023-02-10T07:47:19;97129.72;;;12.05;25.27
64668;BME280;51077;42.716;23.344;2023-02-10T07:49:44;97128.75;;;12.38;25.11
64668;BME280;51077;42.716;23.344;2023-02-10T07:52:10;97131.41;;;12.67;24.91
64668;BME280;51077;42.716;23.344;2023-02-10T07:54:36;97132.59;;;13.01;24.41
64668;BME280;51077;42.716;23.344;2023-02-10T07:57:01;97133.72;;;13.30;24.34
64668;BME280;51077;42.716;23.344;2023-02-10T07:59:27;97140.56;;;13.61;23.89
64668;BME280;51077;42.716;23.344;2023-02-10T08:01:52;97135.56;;;13.91;23.77
64668;BME280;51077;42.716;23.344;2023-02-10T08:04:18;97137.56;;;14.22;23.44
64668;BME280;51077;42.716;23.344;2023-02-10T08:06:43;97138.06;;;14.52;23.24
64668;BME280;51077;42.716;23.344;2023-02-10T08:09:09;97134.47;;;14.83;23.00
64668;BME280;51077;42.716;23.344;2023-02-10T08:11:34;97127.31;;;15.14;22.85
64668;BME280;51077;42.716;23.344;2023-02-10T08:14:01;97129.69;;;15.43;22.48
64668;BME280;51077;42.716;23.344;2023-02-10T08:16:27;97128.53;;;15.72;22.22
64668;BME280;51077;42.716;23.344;2023-02-10T08:18:52;97132.81;;;16.01;21.94
64668;BME280;51077;42.716;23.344;2023-02-10T08:21:17;97127.78;;;16.22;21.58
64668;BME280;51077;42.716;23.344;2023-02-10T08:23:43;97125.50;;;16.49;21.67
64668;BME280;51077;42.716;23.344;2023-02-10T08:26:10;97121.16;;;16.76;21.44
64668;BME280;51077;42.716;23.344;2023-02-10T08:28:37;97119.59;;;17.03;21.24
64668;BME280;51077;42.716;23.344;2023-02-10T08:31:05;97125.28;;;17.27;20.99
64668;BME280;51077;42.716;23.344;2023-02-10T08:33:34;97129.19;;;17.54;20.75
64668;BME280;51077;42.716;23.344;2023-02-10T08:36:13;97125.25;;;17.80;20.56
64668;BME280;51077;42.716;23.344;2023-02-10T08:38:38;97122.03;;;18.06;20.21
64668;BME280;51077;42.716;23.344;2023-02-10T08:41:04;97118.78;;;18.32;20.00
64668;BME280;51077;42.716;23.344;2023-02-10T08:43:30;97122.34;;;18.57;20.01
64668;BME280;51077;42.716;23.344;2023-02-10T08:45:57;97116.59;;;18.79;19.53
64668;BME280;51077;42.716;23.344;2023-02-10T08:48:22;97117.06;;;19.02;19.39
64668;BME280;51077;42.716;23.344;2023-02-10T08:50:48;97107.94;;;19.26;19.15
64668;BME280;51077;42.716;23.344;2023-02-10T08:53:13;97115.47;;;19.50;19.03
64668;BME280;51077;42.716;23.344;2023-02-10T08:55:39;97118.19;;;19.75;18.93
64668;BME280;51077;42.716;23.344;2023-02-10T08:58:05;97114.00;;;20.00;18.79
64668;BME280;51077;42.716;23.344;2023-02-10T09:00:30;97108.28;;;20.25;18.55
64668;BME280;51077;42.716;23.344;2023-02-10T09:02:56;97110.69;;;20.47;18.27
64668;BME280;51077;42.716;23.344;2023-02-10T09:05:21;97104.50;;;20.68;18.19
64668;BME280;51077;42.716;23.344;2023-02-10T09:07:47;97096.69;;;20.93;17.92
64668;BME280;51077;42.716;23.344;2023-02-10T09:10:13;97103.09;;;21.14;17.90
64668;BME280;51077;42.716;23.344;2023-02-10T09:12:39;97101.16;;;21.36;17.83
64668;BME280;51077;42.716;23.344;2023-02-10T09:15:05;97095.63;;;21.56;17.40
64668;BME280;51077;42.716;23.344;2023-02-10T09:17:31;97097.72;;;21.77;17.27
64668;BME280;51077;42.716;23.344;2023-02-10T09:19:56;97095.66;;;21.98;17.30
64668;BME280;51077;42.716;23.344;2023-02-10T09:22:22;97093.47;;;22.18;17.01
64668;BME280;51077;42.716;23.344;2023-02-10T09:24:48;97093.78;;;22.35;16.86
64668;BME280;51077;42.716;23.344;2023-02-10T09:27:16;97094.13;;;22.52;16.60
64668;BME280;51077;42.716;23.344;2023-02-10T09:29:41;97082.06;;;22.65;16.83
64668;BME280;51077;42.716;23.344;2023-02-10T09:32:07;97091.13;;;22.79;16.62
64668;BME280;51077;42.716;23.344;2023-02-10T09:34:32;97081.53;;;22.95;16.47
64668;BME280;51077;42.716;23.344;2023-02-10T09:36:58;97076.22;;;23.13;16.10
64668;BME280;51077;42.716;23.344;2023-02-10T09:39:26;97073.09;;;23.31;16.34
64668;BME280;51077;42.716;23.344;2023-02-10T09:42:06;97066.03;;;23.46;16.14
64668;BME280;51077;42.716;23.344;2023-02-10T09:44:35;97058.44;;;23.62;15.88
64668;BME280;51077;42.716;23.344;2023-02-10T09:47:33;97055.31;;;23.80;15.61
64668;BME280;51077;42.716;23.344;2023-02-10T09:50:32;97070.84;;;23.97;15.39
64668;BME280;51077;42.716;23.344;2023-02-10T09:53:09;97066.19;;;24.15;15.31
64668;BME280;51077;42.716;23.344;2023-02-10T09:55:58;97051.97;;;24.36;15.12
64668;BME280;51077;42.716;23.344;2023-02-10T09:58:35;97056.66;;;24.56;15.32
64668;BME280;51077;42.716;23.344;2023-02-10T10:01:37;97052.69;;;24.74;14.85
64668;BME280;51077;42.716;23.344;2023-02-10T12:10:03;96895.16;;;29.28;11.57
64668;BME280;51077;42.716;23.344;2023-02-10T12:12:37;96884.16;;;29.22;11.82
64668;BME280;51077;42.716;23.344;2023-02-10T12:17:51;96879.41;;;29.15;11.63
64668;BME280;51077;42.716;23.344;2023-02-10T12:20:48;96868.84;;;29.16;11.73
64668;BME280;51077;42.716;23.344;2023-02-10T12:23:38;96863.66;;;29.12;11.57
64668;BME280;51077;42.716;23.344;2023-02-10T12:26:26;96866.81;;;29.07;11.82
64668;BME280;51077;42.716;23.344;2023-02-10T12:29:16;96861.00;;;29.04;11.86
64668;BME280;51077;42.716;23.344;2023-02-10T12:32:14;96863.41;;;28.98;11.74
64668;BME280;51077;42.716;23.344;2023-02-10T12:37:42;96866.22;;;28.89;11.90
64668;BME280;51077;42.716;23.344;2023-02-10T12:45:44;96854.38;;;28.71;11.84
64668;BME280;51077;42.716;23.344;2023-02-10T12:48:34;96848.75;;;28.61;11.68
64668;BME280;51077;42.716;23.344;2023-02-10T12:51:25;96843.41;;;28.46;11.80
64668;BME280;51077;42.716;23.344;2023-02-10T12:53:59;96846.38;;;28.38;11.80
64668;BME280;51077;42.716;23.344;2023-02-10T12:57:02;96843.25;;;28.24;11.84
64668;BME280;51077;42.716;23.344;2023-02-10T12:59:35;96851.72;;;28.15;12.06
64668;BME280;51077;42.716;23.344;2023-02-10T13:02:06;96843.81;;;28.03;12.08
64668;BME280;51077;42.716;23.344;2023-02-10T13:04:38;96846.22;;;27.97;12.23
64668;BME280;51077;42.716;23.344;2023-02-10T13:13:09;96850.19;;;27.75;12.29
64668;BME280;51077;42.716;23.344;2023-02-10T13:15:59;96846.59;;;27.65;12.23
64668;BME280;51077;42.716;23.344;2023-02-10T13:18:30;96838.81;;;27.55;12.39
64668;BME280;51077;42.716;23.344;2023-02-10T13:21:14;96844.44;;;27.46;12.37
64668;BME280;51077;42.716;23.344;2023-02-10T13:24:17;96849.91;;;27.34;12.50
64668;BME280;51077;42.716;23.344;2023-02-10T13:26:59;96848.81;;;27.20;12.59
64668;BME280;51077;42.716;23.344;2023-02-10T13:34:52;96842.09;;;26.88;12.48
64668;BME280;51077;42.716;23.344;2023-02-10T13:40:14;96840.88;;;26.54;13.05
64668;BME280;51077;42.716;23.344;2023-02-10T13:42:51;96843.88;;;26.39;12.71
64668;BME280;51077;42.716;23.344;2023-02-10T13:45:20;96836.59;;;26.19;12.94
64668;BME280;51077;42.716;23.344;2023-02-10T13:47:51;96831.56;;;26.00;13.06
64668;BME280;51077;42.716;23.344;2023-02-10T13:52:54;96828.34;;;25.61;13.50
64668;BME280;51077;42.716;23.344;2023-02-10T13:58:14;96831.47;;;25.23;13.48
64668;BME280;51077;42.716;23.344;2023-02-10T14:00:52;96833.84;;;25.01;13.42
64668;BME280;51077;42.716;23.344;2023-02-10T14:03:30;96830.63;;;24.80;13.70
64668;BME280;51077;42.716;23.344;2023-02-10T14:06:02;96836.00;;;24.61;13.74
64668;BME280;51077;42.716;23.344;2023-02-10T14:08:38;96834.22;;;24.40;14.10
64668;BME280;51077;42.716;23.344;2023-02-10T14:13:39;96826.84;;;23.97;14.15
64668;BME280;51077;42.716;23.344;2023-02-10T14:16:28;96836.81;;;23.75;14.38
64668;BME280;51077;42.716;23.344;2023-02-10T14:19:02;96824.66;;;23.42;14.50
64668;BME280;51077;42.716;23.344;2023-02-10T14:21:41;96819.63;;;23.10;14.61
64668;BME280;51077;42.716;23.344;2023-02-10T14:24:22;96817.50;;;22.79;14.82
64668;BME280;51077;42.716;23.344;2023-02-10T14:26:49;96823.78;;;22.49;14.64
64668;BME280;51077;42.716;23.344;2023-02-10T14:29:17;96823.69;;;22.19;15.05
64668;BME280;51077;42.716;23.344;2023-02-10T14:31:49;96819.97;;;21.88;15.21
64668;BME280;51077;42.716;23.344;2023-02-10T14:34:27;96816.25;;;21.56;15.19
64668;BME280;51077;42.716;23.344;2023-02-10T14:36:56;96813.38;;;21.28;15.67
64668;BME280;51077;42.716;23.344;2023-02-10T14:39:24;96809.81;;;20.99;15.60
64668;BME280;51077;42.716;23.344;2023-02-10T14:41:51;96810.34;;;20.76;15.91
64668;BME280;51077;42.716;23.344;2023-02-10T14:44:39;96809.91;;;20.51;15.96
64668;BME280;51077;42.716;23.344;2023-02-10T14:47:19;96805.66;;;20.24;16.22
64668;BME280;51077;42.716;23.344;2023-02-10T14:49:49;96813.53;;;19.99;16.35
64668;BME280;51077;42.716;23.344;2023-02-10T14:52:48;96813.22;;;19.76;16.57
64668;BME280;51077;42.716;23.344;2023-02-10T14:55:37;96815.66;;;19.53;16.58
64668;BME280;51077;42.716;23.344;2023-02-10T14:58:15;96810.94;;;19.34;16.83
64668;BME280;51077;42.716;23.344;2023-02-10T15:00:54;96813.56;;;19.14;16.94
64668;BME280;51077;42.716;23.344;2023-02-10T15:03:22;96818.47;;;18.94;17.04
64668;BME280;51077;42.716;23.344;2023-02-10T15:05:49;96823.53;;;18.77;17.27
64668;BME280;51077;42.716;23.344;2023-02-10T15:08:21;96822.78;;;18.57;17.45
64668;BME280;51077;42.716;23.344;2023-02-10T15:10:50;96824.28;;;18.40;17.55
64668;BME280;51077;42.716;23.344;2023-02-10T15:13:37;96820.03;;;18.20;17.67
64668;BME280;51077;42.716;23.344;2023-02-10T15:16:06;96821.81;;;17.98;17.83
64668;BME280;51077;42.716;23.344;2023-02-10T15:18:34;96823.06;;;17.78;18.37
64668;BME280;51077;42.716;23.344;2023-02-10T15:21:04;96823.00;;;17.59;18.21
64668;BME280;51077;42.716;23.344;2023-02-10T15:23:29;96827.50;;;17.38;18.44
64668;BME280;51077;42.716;23.344;2023-02-10T15:26:04;96827.94;;;17.18;18.62
64668;BME280;51077;42.716;23.344;2023-02-10T15:28:31;96835.19;;;16.96;18.60
64668;BME280;51077;42.716;23.344;2023-02-10T15:31:03;96824.75;;;16.78;18.67
64668;BME280;51077;42.716;23.344;2023-02-10T15:33:55;96824.88;;;16.55;19.15
64668;BME280;51077;42.716;23.344;2023-02-10T15:41:56;96837.59;;;15.81;19.63
64668;BME280;51077;42.716;23.344;2023-02-10T15:49:43;96844.75;;;14.98;20.39
64668;BME280;51077;42.716;23.344;2023-02-10T15:52:20;96850.00;;;14.74;20.32
64668;BME280;51077;42.716;23.344;2023-02-10T15:54:46;96852.75;;;14.51;20.57
64668;BME280;51077;42.716;23.344;2023-02-10T15:57:14;96847.63;;;14.27;20.64
64668;BME280;51077;42.716;23.344;2023-02-10T15:59:39;96847.81;;;14.07;20.79
64668;BME280;51077;42.716;23.344;2023-02-10T16:02:09;96849.50;;;13.88;20.81
64668;BME280;51077;42.716;23.344;2023-02-10T16:04:35;96852.41;;;13.67;21.04
64668;BME280;51077;42.716;23.344;2023-02-10T16:07:02;96854.81;;;13.48;21.31
64668;BME280;51077;42.716;23.344;2023-02-10T16:09:29;96861.47;;;13.30;21.49
64668;BME280;51077;42.716;23.344;2023-02-10T16:11:56;96859.81;;;13.13;21.61
64668;BME280;51077;42.716;23.344;2023-02-10T16:14:21;96860.91;;;12.95;21.74
64668;BME280;51077;42.716;23.344;2023-02-10T16:16:50;96867.53;;;12.77;21.62
64668;BME280;51077;42.716;23.344;2023-02-10T16:19:22;96870.13;;;12.60;21.84